sensor_id;sensor_type;location;lat;lon;timestamp;temperature;humidity
32476;DHT22;18929;48.008;10.882;2023-06-19T00:00:31;24.70;86.00
32476;DHT22;18929;48.008;10.882;2023-06-19T00:02:58;23.50;87.70
32476;DHT22;18929;48.008;10.882;2023-06-19T00:05:25;24.30;86.00
32476;DHT22;18929;48.008;10.882;2023-06-19T00:07:52;24.50;85.30
32476;DHT22;18929;48.008;10.882;2023-06-19T00:10:19;23.40;88.40
32476;DHT22;18929;48.008;10.882;2023-06-19T00:12:45;23.70;87.70
32476;DHT22;18929;48.008;10.882;2023-06-19T00:15:14;24.10;86.20
32476;DHT22;18929;48.008;10.882;2023-06-19T00:17:40;24.50;85.30
32476;DHT22;18929;48.008;10.882;2023-06-19T00:20:07;24.20;85.70
32476;DHT22;18929;48.008;10.882;2023-06-19T00:22:34;24.50;85.00
32476;DHT22;18929;48.008;10.882;2023-06-19T00:25:01;24.50;85.00
32476;DHT22;18929;48.008;10.882;2023-06-19T00:27:28;24.50;85.00
32476;DHT22;18929;48.008;10.882;2023-06-19T00:29:55;24.50;85.00
32476;DHT22;18929;48.008;10.882;2023-06-19T00:32:29;24.40;85.00
32476;DHT22;18929;48.008;10.882;2023-06-19T00:34:55;24.10;85.40
32476;DHT22;18929;48.008;10.882;2023-06-19T00:37:22;24.20;85.50
32476;DHT22;18929;48.008;10.882;2023-06-19T00:39:49;24.50;84.60
32476;DHT22;18929;48.008;10.882;2023-06-19T00:42:16;24.50;84.60
32476;DHT22;18929;48.008;10.882;2023-06-19T00:44:43;24.40;84.90
32476;DHT22;18929;48.008;10.882;2023-06-19T00:47:10;24.30;85.30
32476;DHT22;18929;48.008;10.882;2023-06-19T00:49:38;24.30;85.30
32476;DHT22;18929;48.008;10.882;2023-06-19T00:52:05;24.30;86.50
32476;DHT22;18929;48.008;10.882;2023-06-19T00:54:32;23.50;87.10
32476;DHT22;18929;48.008;10.882;2023-06-19T00:56:59;24.00;86.00
32476;DHT22;18929;48.008;10.882;2023-06-19T00:59:26;24.20;85.70
32476;DHT22;18929;48.008;10.882;2023-06-19T01:01:54;23.90;86.80
32476;DHT22;18929;48.008;10.882;2023-06-19T01:04:21;24.00;86.10
32476;DHT22;18929;48.008;10.882;2023-06-19T01:06:52;24.20;85.80
32476;DHT22;18929;48.008;10.882;2023-06-19T01:09:23;24.10;85.80
32476;DHT22;18929;48.008;10.882;2023-06-19T01:11:52;24.10;86.00
32476;DHT22;18929;48.008;10.882;2023-06-19T01:14:21;24.00;86.10
32476;DHT22;18929;48.008;10.882;2023-06-19T01:16:51;24.00;86.10
32476;DHT22;18929;48.008;10.882;2023-06-19T01:19:19;24.10;86.00
32476;DHT22;18929;48.008;10.882;2023-06-19T01:21:46;24.10;85.80
32476;DHT22;18929;48.008;10.882;2023-06-19T01:24:14;24.10;85.90
32476;DHT22;18929;48.008;10.882;2023-06-19T01:26:41;24.00;86.10
32476;DHT22;18929;48.008;10.882;2023-06-19T01:29:11;24.00;86.20
32476;DHT22;18929;48.008;10.882;2023-06-19T01:31:41;24.00;86.60
32476;DHT22;18929;48.008;10.882;2023-06-19T01:34:09;23.90;86.70
32476;DHT22;18929;48.008;10.882;2023-06-19T01:36:38;23.80;86.80
32476;DHT22;18929;48.008;10.882;2023-06-19T01:39:05;23.80;87.10
32476;DHT22;18929;48.008;10.882;2023-06-19T01:41:34;23.70;87.30
32476;DHT22;18929;48.008;10.882;2023-06-19T01:44:02;23.50;87.90
32476;DHT22;18929;48.008;10.882;2023-06-19T01:46:29;23.70;87.40
32476;DHT22;18929;48.008;10.882;2023-06-19T01:48:55;23.70;87.20
32476;DHT22;18929;48.008;10.882;2023-06-19T01:51:23;23.80;87.10
32476;DHT22;18929;48.008;10.882;2023-06-19T01:53:50;23.70;87.10
32476;DHT22;18929;48.008;10.882;2023-06-19T01:56:17;22.90;90.40
32476;DHT22;18929;48.008;10.882;2023-06-19T01:58:45;23.40;88.30
32476;DHT22;18929;48.008;10.882;2023-06-19T02:01:12;22.80;90.40
32476;DHT22;18929;48.008;10.882;2023-06-19T02:03:38;23.00;89.90
32476;DHT22;18929;48.008;10.882;2023-06-19T02:06:05;23.40;88.60
32476;DHT22;18929;48.008;10.882;2023-06-19T02:08:32;23.60;89.80
32476;DHT22;18929;48.008;10.882;2023-06-19T02:10:59;23.60;87.90
32476;DHT22;18929;48.008;10.882;2023-06-19T02:13:26;23.80;87.30
32476;DHT22;18929;48.008;10.882;2023-06-19T02:15:54;23.80;87.20
32476;DHT22;18929;48.008;10.882;2023-06-19T02:18:21;23.70;88.00
32476;DHT22;18929;48.008;10.882;2023-06-19T02:23:52;23.40;88.80
32476;DHT22;18929;48.008;10.882;2023-06-19T02:26:18;23.50;88.70
32476;DHT22;18929;48.008;10.882;2023-06-19T02:28:45;23.50;88.50
32476;DHT22;18929;48.008;10.882;2023-06-19T02:31:13;23.60;88.00
32476;DHT22;18929;48.008;10.882;2023-06-19T02:33:40;23.40;90.80
32476;DHT22;18929;48.008;10.882;2023-06-19T02:36:07;23.30;89.50
32476;DHT22;18929;48.008;10.882;2023-06-19T02:38:33;23.40;89.70
32476;DHT22;18929;48.008;10.882;2023-06-19T02:41:01;23.40;89.50
32476;DHT22;18929;48.008;10.882;2023-06-19T02:43:28;23.40;89.40
32476;DHT22;18929;48.008;10.882;2023-06-19T02:45:55;23.40;89.70
32476;DHT22;18929;48.008;10.882;2023-06-19T02:48:23;22.70;91.70
32476;DHT22;18929;48.008;10.882;2023-06-19T02:50:50;22.50;92.20
32476;DHT22;18929;48.008;10.882;2023-06-19T02:53:16;22.40;91.60
32476;DHT22;18929;48.008;10.882;2023-06-19T02:55:43;22.60;92.40
32476;DHT22;18929;48.008;10.882;2023-06-19T02:58:10;22.50;92.50
32476;DHT22;18929;48.008;10.882;2023-06-19T03:00:37;22.00;93.30
32476;DHT22;18929;48.008;10.882;2023-06-19T03:03:05;22.50;91.60
32476;DHT22;18929;48.008;10.882;2023-06-19T03:05:33;22.70;91.20
32476;DHT22;18929;48.008;10.882;2023-06-19T03:08:00;23.00;91.80
32476;DHT22;18929;48.008;10.882;2023-06-19T03:10:26;23.00;91.40
32476;DHT22;18929;48.008;10.882;2023-06-19T03:12:53;23.00;91.30
32476;DHT22;18929;48.008;10.882;2023-06-19T03:15:20;21.50;94.00
32476;DHT22;18929;48.008;10.882;2023-06-19T03:17:47;22.20;92.50
32476;DHT22;18929;48.008;10.882;2023-06-19T03:20:14;22.40;92.30
32476;DHT22;18929;48.008;10.882;2023-06-19T03:22:42;22.40;92.40
32476;DHT22;18929;48.008;10.882;2023-06-19T03:25:09;22.50;92.50
32476;DHT22;18929;48.008;10.882;2023-06-19T03:27:35;22.30;93.30
32476;DHT22;18929;48.008;10.882;2023-06-19T03:30:03;22.60;94.00
32476;DHT22;18929;48.008;10.882;2023-06-19T03:32:31;21.50;95.60
32476;DHT22;18929;48.008;10.882;2023-06-19T03:34:59;21.50;95.40
32476;DHT22;18929;48.008;10.882;2023-06-19T03:37:26;20.60;98.60
32476;DHT22;18929;48.008;10.882;2023-06-19T03:39:54;21.40;96.00
32476;DHT22;18929;48.008;10.882;2023-06-19T03:42:21;20.90;97.20
32476;DHT22;18929;48.008;10.882;2023-06-19T03:44:47;21.30;96.70
32476;DHT22;18929;48.008;10.882;2023-06-19T03:47:14;22.00;95.20
32476;DHT22;18929;48.008;10.882;2023-06-19T03:49:41;22.30;94.60
32476;DHT22;18929;48.008;10.882;2023-06-19T03:52:08;22.00;94.80
32476;DHT22;18929;48.008;10.882;2023-06-19T03:54:35;22.00;95.60
32476;DHT22;18929;48.008;10.882;2023-06-19T03:57:03;22.10;94.80
32476;DHT22;18929;48.008;10.882;2023-06-19T03:59:30;22.40;95.10
32476;DHT22;18929;48.008;10.882;2023-06-19T04:01:57;22.50;94.30
32476;DHT22;18929;48.008;10.882;2023-06-19T04:04:24;21.90;96.20
32476;DHT22;18929;48.008;10.882;2023-06-19T04:06:51;22.10;95.10
32476;DHT22;18929;48.008;10.882;2023-06-19T04:09:17;22.10;96.80
32476;DHT22;18929;48.008;10.882;2023-06-19T04:11:44;21.90;95.70
32476;DHT22;18929;48.008;10.882;2023-06-19T04:14:12;21.80;97.10
32476;DHT22;18929;48.008;10.882;2023-06-19T04:16:39;21.90;95.80
32476;DHT22;18929;48.008;10.882;2023-06-19T04:19:06;22.20;95.00
32476;DHT22;18929;48.008;10.882;2023-06-19T04:21:33;22.20;96.50
32476;DHT22;18929;48.008;10.882;2023-06-19T04:23:59;21.60;96.70
32476;DHT22;18929;48.008;10.882;2023-06-19T04:26:26;21.60;97.10
32476;DHT22;18929;48.008;10.882;2023-06-19T04:31:45;21.70;95.90
32476;DHT22;18929;48.008;10.882;2023-06-19T04:34:15;21.70;96.40
32476;DHT22;18929;48.008;10.882;2023-06-19T04:39:27;21.90;95.50
32476;DHT22;18929;48.008;10.882;2023-06-19T04:41:54;21.60;97.00
32476;DHT22;18929;48.008;10.882;2023-06-19T04:44:21;21.90;97.30
32476;DHT22;18929;48.008;10.882;2023-06-19T04:46:49;21.90;96.10
32476;DHT22;18929;48.008;10.882;2023-06-19T04:49:16;21.80;96.20
32476;DHT22;18929;48.008;10.882;2023-06-19T04:51:42;22.00;95.30
32476;DHT22;18929;48.008;10.882;2023-06-19T04:54:09;22.10;94.90
32476;DHT22;18929;48.008;10.882;2023-06-19T04:56:36;22.20;94.70
32476;DHT22;18929;48.008;10.882;2023-06-19T04:59:03;22.10;94.80
32476;DHT22;18929;48.008;10.882;2023-06-19T05:01:29;22.10;94.50
32476;DHT22;18929;48.008;10.882;2023-06-19T05:03:58;22.40;94.00
32476;DHT22;18929;48.008;10.882;2023-06-19T05:06:25;22.50;93.90
32476;DHT22;18929;48.008;10.882;2023-06-19T05:08:52;22.30;94.00
32476;DHT22;18929;48.008;10.882;2023-06-19T05:11:18;22.40;93.90
32476;DHT22;18929;48.008;10.882;2023-06-19T05:13:45;22.40;94.50
32476;DHT22;18929;48.008;10.882;2023-06-19T05:16:12;22.70;93.70
32476;DHT22;18929;48.008;10.882;2023-06-19T05:18:41;22.50;94.50
32476;DHT22;18929;48.008;10.882;2023-06-19T05:21:09;22.90;93.50
32476;DHT22;18929;48.008;10.882;2023-06-19T05:23:36;23.30;93.90
32476;DHT22;18929;48.008;10.882;2023-06-19T05:26:04;23.30;93.30
32476;DHT22;18929;48.008;10.882;2023-06-19T05:28:31;23.30;92.80
32476;DHT22;18929;48.008;10.882;2023-06-19T05:30:57;22.80;93.80
32476;DHT22;18929;48.008;10.882;2023-06-19T05:33:24;22.70;93.30
32476;DHT22;18929;48.008;10.882;2023-06-19T05:35:51;22.40;94.40
32476;DHT22;18929;48.008;10.882;2023-06-19T05:38:20;22.50;94.20
32476;DHT22;18929;48.008;10.882;2023-06-19T05:40:48;22.40;93.80
32476;DHT22;18929;48.008;10.882;2023-06-19T05:43:16;22.60;94.60
32476;DHT22;18929;48.008;10.882;2023-06-19T05:45:44;22.70;94.00
32476;DHT22;18929;48.008;10.882;2023-06-19T05:48:10;22.80;93.10
32476;DHT22;18929;48.008;10.882;2023-06-19T05:50:37;22.60;94.00
32476;DHT22;18929;48.008;10.882;2023-06-19T05:53:04;22.40;94.70
32476;DHT22;18929;48.008;10.882;2023-06-19T05:55:32;22.60;94.90
32476;DHT22;18929;48.008;10.882;2023-06-19T05:57:59;23.10;94.30
32476;DHT22;18929;48.008;10.882;2023-06-19T06:00:26;23.80;93.70
32476;DHT22;18929;48.008;10.882;2023-06-19T06:02:52;24.70;92.50
32476;DHT22;18929;48.008;10.882;2023-06-19T06:05:19;24.10;92.00
32476;DHT22;18929;48.008;10.882;2023-06-19T06:07:46;23.60;92.50
32476;DHT22;18929;48.008;10.882;2023-06-19T06:10:13;23.90;92.20
32476;DHT22;18929;48.008;10.882;2023-06-19T06:12:43;23.50;93.40
32476;DHT22;18929;48.008;10.882;2023-06-19T06:15:10;23.00;94.30
32476;DHT22;18929;48.008;10.882;2023-06-19T06:17:37;23.00;93.40
32476;DHT22;18929;48.008;10.882;2023-06-19T06:20:04;23.10;93.70
32476;DHT22;18929;48.008;10.882;2023-06-19T06:22:36;23.10;93.80
32476;DHT22;18929;48.008;10.882;2023-06-19T06:25:03;22.90;93.70
32476;DHT22;18929;48.008;10.882;2023-06-19T06:27:31;23.00;93.70
32476;DHT22;18929;48.008;10.882;2023-06-19T06:29:59;22.70;94.00
32476;DHT22;18929;48.008;10.882;2023-06-19T06:32:26;22.90;94.10
32476;DHT22;18929;48.008;10.882;2023-06-19T06:34:54;23.00;93.70
32476;DHT22;18929;48.008;10.882;2023-06-19T06:37:21;23.10;94.40
32476;DHT22;18929;48.008;10.882;2023-06-19T06:39:48;23.00;95.00
32476;DHT22;18929;48.008;10.882;2023-06-19T06:42:15;23.30;93.60
32476;DHT22;18929;48.008;10.882;2023-06-19T06:44:42;23.20;93.70
32476;DHT22;18929;48.008;10.882;2023-06-19T06:47:10;23.50;94.00
32476;DHT22;18929;48.008;10.882;2023-06-19T06:49:37;23.20;93.40
32476;DHT22;18929;48.008;10.882;2023-06-19T06:52:04;23.10;94.10
32476;DHT22;18929;48.008;10.882;2023-06-19T06:54:31;23.30;94.30
32476;DHT22;18929;48.008;10.882;2023-06-19T06:56:58;23.30;93.90
32476;DHT22;18929;48.008;10.882;2023-06-19T06:59:25;23.00;94.10
32476;DHT22;18929;48.008;10.882;2023-06-19T07:01:52;23.10;93.90
32476;DHT22;18929;48.008;10.882;2023-06-19T07:04:21;23.40;93.70
32476;DHT22;18929;48.008;10.882;2023-06-19T07:06:48;23.30;94.20
32476;DHT22;18929;48.008;10.882;2023-06-19T07:09:15;23.00;94.00
32476;DHT22;18929;48.008;10.882;2023-06-19T07:11:42;23.30;93.80
32476;DHT22;18929;48.008;10.882;2023-06-19T07:14:08;23.30;93.80
32476;DHT22;18929;48.008;10.882;2023-06-19T07:16:35;23.40;93.60
32476;DHT22;18929;48.008;10.882;2023-06-19T07:19:02;23.60;94.20
32476;DHT22;18929;48.008;10.882;2023-06-19T07:21:30;23.90;92.80
32476;DHT22;18929;48.008;10.882;2023-06-19T07:23:57;23.80;92.90
32476;DHT22;18929;48.008;10.882;2023-06-19T07:26:24;23.50;93.20
32476;DHT22;18929;48.008;10.882;2023-06-19T07:28:51;23.60;93.10
32476;DHT22;18929;48.008;10.882;2023-06-19T07:31:18;23.80;92.80
32476;DHT22;18929;48.008;10.882;2023-06-19T07:33:45;24.20;92.10
32476;DHT22;18929;48.008;10.882;2023-06-19T07:36:11;24.10;92.30
32476;DHT22;18929;48.008;10.882;2023-06-19T07:38:41;24.10;92.60
32476;DHT22;18929;48.008;10.882;2023-06-19T07:41:08;24.30;92.00
32476;DHT22;18929;48.008;10.882;2023-06-19T07:43:35;24.00;92.50
32476;DHT22;18929;48.008;10.882;2023-06-19T07:46:02;24.10;92.40
32476;DHT22;18929;48.008;10.882;2023-06-19T07:48:29;23.50;93.00
32476;DHT22;18929;48.008;10.882;2023-06-19T07:50:56;23.50;93.90
32476;DHT22;18929;48.008;10.882;2023-06-19T07:53:23;23.90;92.70
32476;DHT22;18929;48.008;10.882;2023-06-19T07:55:51;23.80;92.80
32476;DHT22;18929;48.008;10.882;2023-06-19T07:58:17;23.50;93.50
32476;DHT22;18929;48.008;10.882;2023-06-19T08:00:44;23.60;93.30
32476;DHT22;18929;48.008;10.882;2023-06-19T08:03:11;23.70;93.10
32476;DHT22;18929;48.008;10.882;2023-06-19T08:05:38;23.90;93.20
32476;DHT22;18929;48.008;10.882;2023-06-19T08:08:08;24.40;92.40
32476;DHT22;18929;48.008;10.882;2023-06-19T08:10:34;24.30;92.80
32476;DHT22;18929;48.008;10.882;2023-06-19T08:13:03;24.50;92.50
32476;DHT22;18929;48.008;10.882;2023-06-19T08:15:29;24.60;92.80
32476;DHT22;18929;48.008;10.882;2023-06-19T08:17:56;24.70;92.60
32476;DHT22;18929;48.008;10.882;2023-06-19T08:20:23;24.70;92.30
32476;DHT22;18929;48.008;10.882;2023-06-19T08:22:50;24.60;92.00
32476;DHT22;18929;48.008;10.882;2023-06-19T08:25:16;24.60;92.30
32476;DHT22;18929;48.008;10.882;2023-06-19T08:27:43;24.50;92.30
32476;DHT22;18929;48.008;10.882;2023-06-19T08:30:12;24.50;92.00
32476;DHT22;18929;48.008;10.882;2023-06-19T08:32:39;24.50;92.30
32476;DHT22;18929;48.008;10.882;2023-06-19T08:35:06;24.80;92.00
32476;DHT22;18929;48.008;10.882;2023-06-19T08:37:33;24.70;92.10
32476;DHT22;18929;48.008;10.882;2023-06-19T08:40:00;24.80;92.00
32476;DHT22;18929;48.008;10.882;2023-06-19T08:42:29;24.80;91.80
32476;DHT22;18929;48.008;10.882;2023-06-19T08:44:56;24.70;92.10
32476;DHT22;18929;48.008;10.882;2023-06-19T08:47:29;24.80;92.10
32476;DHT22;18929;48.008;10.882;2023-06-19T08:49:56;24.80;92.40
32476;DHT22;18929;48.008;10.882;2023-06-19T08:52:24;25.30;92.20
32476;DHT22;18929;48.008;10.882;2023-06-19T08:54:50;25.60;91.40
32476;DHT22;18929;48.008;10.882;2023-06-19T08:57:17;25.80;92.10
32476;DHT22;18929;48.008;10.882;2023-06-19T08:59:47;25.40;91.40
32476;DHT22;18929;48.008;10.882;2023-06-19T09:02:14;25.40;91.40
32476;DHT22;18929;48.008;10.882;2023-06-19T09:04:42;25.60;90.80
32476;DHT22;18929;48.008;10.882;2023-06-19T09:07:09;25.90;90.60
32476;DHT22;18929;48.008;10.882;2023-06-19T09:09:36;25.80;90.70
32476;DHT22;18929;48.008;10.882;2023-06-19T09:12:03;25.60;90.80
32476;DHT22;18929;48.008;10.882;2023-06-19T09:14:31;25.50;90.80
32476;DHT22;18929;48.008;10.882;2023-06-19T09:16:59;25.30;90.60
32476;DHT22;18929;48.008;10.882;2023-06-19T09:19:26;25.30;90.60
32476;DHT22;18929;48.008;10.882;2023-06-19T09:21:58;24.90;91.50
32476;DHT22;18929;48.008;10.882;2023-06-19T09:24:32;25.30;90.50
32476;DHT22;18929;48.008;10.882;2023-06-19T09:27:04;25.50;89.00
32476;DHT22;18929;48.008;10.882;2023-06-19T09:29:31;25.70;89.90
32476;DHT22;18929;48.008;10.882;2023-06-19T09:31:58;26.10;89.30
32476;DHT22;18929;48.008;10.882;2023-06-19T09:34:25;25.90;88.80
32476;DHT22;18929;48.008;10.882;2023-06-19T09:36:52;25.90;90.00
32476;DHT22;18929;48.008;10.882;2023-06-19T09:39:20;26.10;89.10
32476;DHT22;18929;48.008;10.882;2023-06-19T09:41:49;26.50;88.40
32476;DHT22;18929;48.008;10.882;2023-06-19T09:44:17;26.30;88.90
32476;DHT22;18929;48.008;10.882;2023-06-19T09:46:47;26.00;86.30
32476;DHT22;18929;48.008;10.882;2023-06-19T09:49:15;25.90;89.50
32476;DHT22;18929;48.008;10.882;2023-06-19T09:51:42;26.00;89.60
32476;DHT22;18929;48.008;10.882;2023-06-19T09:54:09;26.70;86.70
32476;DHT22;18929;48.008;10.882;2023-06-19T09:56:38;26.80;85.00
32476;DHT22;18929;48.008;10.882;2023-06-19T09:59:05;26.20;88.20
32476;DHT22;18929;48.008;10.882;2023-06-19T10:01:34;26.50;87.00
32476;DHT22;18929;48.008;10.882;2023-06-19T10:04:06;26.60;87.30
32476;DHT22;18929;48.008;10.882;2023-06-19T10:06:41;26.50;88.50
32476;DHT22;18929;48.008;10.882;2023-06-19T10:09:09;26.00;89.40
32476;DHT22;18929;48.008;10.882;2023-06-19T10:11:47;25.70;90.40
32476;DHT22;18929;48.008;10.882;2023-06-19T10:14:16;25.60;90.70
32476;DHT22;18929;48.008;10.882;2023-06-19T10:16:44;25.80;90.20
32476;DHT22;18929;48.008;10.882;2023-06-19T10:19:11;25.60;90.50
32476;DHT22;18929;48.008;10.882;2023-06-19T10:21:43;25.70;90.60
32476;DHT22;18929;48.008;10.882;2023-06-19T10:24:13;25.90;90.00
32476;DHT22;18929;48.008;10.882;2023-06-19T10:26:40;25.90;90.40
32476;DHT22;18929;48.008;10.882;2023-06-19T10:29:14;25.90;90.20
32476;DHT22;18929;48.008;10.882;2023-06-19T10:31:41;25.80;89.30
32476;DHT22;18929;48.008;10.882;2023-06-19T10:34:08;26.00;90.10
32476;DHT22;18929;48.008;10.882;2023-06-19T10:36:35;26.00;90.00
32476;DHT22;18929;48.008;10.882;2023-06-19T10:39:02;26.10;90.60
32476;DHT22;18929;48.008;10.882;2023-06-19T10:41:29;26.30;90.00
32476;DHT22;18929;48.008;10.882;2023-06-19T10:43:58;26.30;90.70
32476;DHT22;18929;48.008;10.882;2023-06-19T10:46:29;26.30;90.10
32476;DHT22;18929;48.008;10.882;2023-06-19T10:48:57;26.50;90.10
32476;DHT22;18929;48.008;10.882;2023-06-19T10:51:26;26.80;90.20
32476;DHT22;18929;48.008;10.882;2023-06-19T10:53:53;26.50;90.30
32476;DHT22;18929;48.008;10.882;2023-06-19T10:56:21;26.40;90.50
32476;DHT22;18929;48.008;10.882;2023-06-19T10:58:48;26.40;90.70
32476;DHT22;18929;48.008;10.882;2023-06-19T11:01:14;26.00;90.70
32476;DHT22;18929;48.008;10.882;2023-06-19T11:03:43;25.90;91.00
32476;DHT22;18929;48.008;10.882;2023-06-19T11:06:09;26.10;90.60
32476;DHT22;18929;48.008;10.882;2023-06-19T11:08:36;26.30;88.60
32476;DHT22;18929;48.008;10.882;2023-06-19T11:11:03;26.20;88.20
32476;DHT22;18929;48.008;10.882;2023-06-19T11:13:30;26.60;87.10
32476;DHT22;18929;48.008;10.882;2023-06-19T11:15:57;26.40;85.80
32476;DHT22;18929;48.008;10.882;2023-06-19T11:18:24;26.70;84.80
32476;DHT22;18929;48.008;10.882;2023-06-19T11:20:52;26.80;86.80
32476;DHT22;18929;48.008;10.882;2023-06-19T11:23:24;26.60;86.00
32476;DHT22;18929;48.008;10.882;2023-06-19T11:25:51;26.70;87.60
32476;DHT22;18929;48.008;10.882;2023-06-19T11:28:18;27.00;86.10
32476;DHT22;18929;48.008;10.882;2023-06-19T11:30:47;26.80;82.10
32476;DHT22;18929;48.008;10.882;2023-06-19T11:33:16;26.90;86.60
32476;DHT22;18929;48.008;10.882;2023-06-19T11:35:46;27.00;85.50
32476;DHT22;18929;48.008;10.882;2023-06-19T11:38:17;27.20;85.70
32476;DHT22;18929;48.008;10.882;2023-06-19T11:40:44;27.10;86.90
32476;DHT22;18929;48.008;10.882;2023-06-19T11:43:11;26.90;83.10
32476;DHT22;18929;48.008;10.882;2023-06-19T11:45:44;26.90;86.50
32476;DHT22;18929;48.008;10.882;2023-06-19T11:48:11;26.80;82.20
32476;DHT22;18929;48.008;10.882;2023-06-19T11:50:38;26.80;81.20
32476;DHT22;18929;48.008;10.882;2023-06-19T11:53:05;27.20;83.00
32476;DHT22;18929;48.008;10.882;2023-06-19T11:55:33;27.10;79.60
32476;DHT22;18929;48.008;10.882;2023-06-19T11:58:00;27.50;84.10
32476;DHT22;18929;48.008;10.882;2023-06-19T12:00:26;27.30;82.20
32476;DHT22;18929;48.008;10.882;2023-06-19T12:02:53;27.60;83.50
32476;DHT22;18929;48.008;10.882;2023-06-19T12:05:22;27.50;80.60
32476;DHT22;18929;48.008;10.882;2023-06-19T12:07:49;27.90;82.70
32476;DHT22;18929;48.008;10.882;2023-06-19T12:10:16;27.80;82.10
32476;DHT22;18929;48.008;10.882;2023-06-19T12:12:44;28.00;81.30
32476;DHT22;18929;48.008;10.882;2023-06-19T12:15:11;27.90;81.60
32476;DHT22;18929;48.008;10.882;2023-06-19T12:17:38;28.10;74.70
32476;DHT22;18929;48.008;10.882;2023-06-19T12:20:05;27.80;80.90
32476;DHT22;18929;48.008;10.882;2023-06-19T12:22:33;27.80;80.20
32476;DHT22;18929;48.008;10.882;2023-06-19T12:25:00;28.20;80.70
32476;DHT22;18929;48.008;10.882;2023-06-19T12:27:27;28.60;78.70
32476;DHT22;18929;48.008;10.882;2023-06-19T12:29:55;27.60;75.90
32476;DHT22;18929;48.008;10.882;2023-06-19T12:32:22;27.90;80.00
32476;DHT22;18929;48.008;10.882;2023-06-19T12:34:50;28.30;76.10
32476;DHT22;18929;48.008;10.882;2023-06-19T12:37:19;28.50;79.40
32476;DHT22;18929;48.008;10.882;2023-06-19T12:39:46;28.60;75.40
32476;DHT22;18929;48.008;10.882;2023-06-19T12:42:13;28.50;75.50
32476;DHT22;18929;48.008;10.882;2023-06-19T12:44:40;28.60;75.50
32476;DHT22;18929;48.008;10.882;2023-06-19T12:47:08;28.80;78.90
32476;DHT22;18929;48.008;10.882;2023-06-19T12:49:35;29.00;78.00
32476;DHT22;18929;48.008;10.882;2023-06-19T12:52:02;28.80;77.80
32476;DHT22;18929;48.008;10.882;2023-06-19T12:54:31;28.90;78.00
32476;DHT22;18929;48.008;10.882;2023-06-19T12:56:58;29.40;77.30
32476;DHT22;18929;48.008;10.882;2023-06-19T12:59:25;29.60;76.80
32476;DHT22;18929;48.008;10.882;2023-06-19T13:01:51;29.40;72.80
32476;DHT22;18929;48.008;10.882;2023-06-19T13:04:20;29.50;76.90
32476;DHT22;18929;48.008;10.882;2023-06-19T13:06:46;29.20;74.00
32476;DHT22;18929;48.008;10.882;2023-06-19T13:09:13;29.00;77.50
32476;DHT22;18929;48.008;10.882;2023-06-19T13:11:40;29.00;73.90
32476;DHT22;18929;48.008;10.882;2023-06-19T13:14:07;29.30;74.20
32476;DHT22;18929;48.008;10.882;2023-06-19T13:16:34;28.40;73.30
32476;DHT22;18929;48.008;10.882;2023-06-19T13:19:01;28.40;74.30
32476;DHT22;18929;48.008;10.882;2023-06-19T13:21:29;29.40;78.00
32476;DHT22;18929;48.008;10.882;2023-06-19T13:23:56;29.50;74.40
32476;DHT22;18929;48.008;10.882;2023-06-19T13:26:23;29.70;72.90
32476;DHT22;18929;48.008;10.882;2023-06-19T13:28:50;29.40;73.70
32476;DHT22;18929;48.008;10.882;2023-06-19T13:31:17;29.30;73.10
32476;DHT22;18929;48.008;10.882;2023-06-19T13:33:44;29.80;76.50
32476;DHT22;18929;48.008;10.882;2023-06-19T13:36:10;29.70;72.00
32476;DHT22;18929;48.008;10.882;2023-06-19T13:38:38;29.50;72.80
32476;DHT22;18929;48.008;10.882;2023-06-19T13:41:05;29.00;72.90
32476;DHT22;18929;48.008;10.882;2023-06-19T13:43:32;28.80;75.10
32476;DHT22;18929;48.008;10.882;2023-06-19T13:45:59;28.80;75.70
32476;DHT22;18929;48.008;10.882;2023-06-19T13:48:26;29.20;72.60
32476;DHT22;18929;48.008;10.882;2023-06-19T13:50:53;29.30;71.50
32476;DHT22;18929;48.008;10.882;2023-06-19T13:53:19;29.20;73.50
32476;DHT22;18929;48.008;10.882;2023-06-19T13:55:48;29.30;71.60
32476;DHT22;18929;48.008;10.882;2023-06-19T13:58:15;29.30;73.50
32476;DHT22;18929;48.008;10.882;2023-06-19T14:00:42;30.00;72.50
32476;DHT22;18929;48.008;10.882;2023-06-19T14:03:09;29.90;75.20
32476;DHT22;18929;48.008;10.882;2023-06-19T14:05:35;30.40;74.80
32476;DHT22;18929;48.008;10.882;2023-06-19T14:08:03;30.10;69.60
32476;DHT22;18929;48.008;10.882;2023-06-19T14:10:30;29.30;71.90
32476;DHT22;18929;48.008;10.882;2023-06-19T14:12:59;29.00;72.90
32476;DHT22;18929;48.008;10.882;2023-06-19T14:15:25;29.00;71.90
32476;DHT22;18929;48.008;10.882;2023-06-19T14:17:52;28.40;72.90
32476;DHT22;18929;48.008;10.882;2023-06-19T14:20:19;28.40;73.30
32476;DHT22;18929;48.008;10.882;2023-06-19T14:22:46;28.60;72.40
32476;DHT22;18929;48.008;10.882;2023-06-19T14:25:13;29.40;78.00
32476;DHT22;18929;48.008;10.882;2023-06-19T14:27:39;30.10;72.00
32476;DHT22;18929;48.008;10.882;2023-06-19T14:30:08;29.40;72.20
32476;DHT22;18929;48.008;10.882;2023-06-19T14:32:35;29.10;74.10
32476;DHT22;18929;48.008;10.882;2023-06-19T14:35:02;29.60;76.60
32476;DHT22;18929;48.008;10.882;2023-06-19T14:37:29;30.00;74.30
32476;DHT22;18929;48.008;10.882;2023-06-19T14:39:56;29.50;72.20
32476;DHT22;18929;48.008;10.882;2023-06-19T14:42:23;29.70;73.80
32476;DHT22;18929;48.008;10.882;2023-06-19T14:44:50;30.20;74.30
32476;DHT22;18929;48.008;10.882;2023-06-19T14:47:18;30.10;71.30
32476;DHT22;18929;48.008;10.882;2023-06-19T14:49:45;30.40;74.50
32476;DHT22;18929;48.008;10.882;2023-06-19T14:52:13;29.60;70.80
32476;DHT22;18929;48.008;10.882;2023-06-19T14:54:40;29.60;72.50
32476;DHT22;18929;48.008;10.882;2023-06-19T14:57:07;29.30;77.00
32476;DHT22;18929;48.008;10.882;2023-06-19T14:59:34;29.10;72.50
32476;DHT22;18929;48.008;10.882;2023-06-19T15:02:01;28.90;74.90
32476;DHT22;18929;48.008;10.882;2023-06-19T15:04:30;29.50;76.60
32476;DHT22;18929;48.008;10.882;2023-06-19T15:06:57;29.80;72.70
32476;DHT22;18929;48.008;10.882;2023-06-19T15:09:24;29.80;74.30
32476;DHT22;18929;48.008;10.882;2023-06-19T15:11:51;29.70;72.10
32476;DHT22;18929;48.008;10.882;2023-06-19T15:14:18;29.50;71.30
32476;DHT22;18929;48.008;10.882;2023-06-19T15:16:45;29.30;72.50
32476;DHT22;18929;48.008;10.882;2023-06-19T15:19:11;29.60;73.50
32476;DHT22;18929;48.008;10.882;2023-06-19T15:21:40;29.30;72.60
32476;DHT22;18929;48.008;10.882;2023-06-19T15:24:07;30.00;76.10